sensor_id;sensor_type;location;lat;lon;timestamp;P1;durP1;ratioP1;P2;durP2;ratioP2
34064;SDS011;20339;49.754;20.158;2022-12-11T00:00:13;15.60;;;10.20;;
34064;SDS011;20339;49.754;20.158;2022-12-11T00:03:02;15.10;;;10.40;;
34064;SDS011;20339;49.754;20.158;2022-12-11T00:05:31;13.40;;;9.40;;
34064;SDS011;20339;49.754;20.158;2022-12-11T00:08:00;14.80;;;10.20;;
34064;SDS011;20339;49.754;20.158;2022-12-11T00:10:29;17.30;;;12.30;;
34064;SDS011;20339;49.754;20.158;2022-12-11T00:12:57;16.40;;;10.90;;
34064;SDS011;20339;49.754;20.158;2022-12-11T00:15:26;15.20;;;11.30;;
34064;SDS011;20339;49.754;20.158;2022-12-11T00:17:55;15.80;;;11.20;;
34064;SDS011;20339;49.754;20.158;2022-12-11T00:20:26;14.90;;;10.20;;
34064;SDS011;20339;49.754;20.158;2022-12-11T00:22:55;16.30;;;11.10;;
34064;SDS011;20339;49.754;20.158;2022-12-11T00:25:23;17.40;;;11.70;;
34064;SDS011;20339;49.754;20.158;2022-12-11T00:27:51;16.00;;;11.00;;
34064;SDS011;20339;49.754;20.158;2022-12-11T00:30:20;15.60;;;10.70;;
34064;SDS011;20339;49.754;20.158;2022-12-11T00:32:50;15.10;;;10.50;;
34064;SDS011;20339;49.754;20.158;2022-12-11T00:35:19;18.50;;;11.70;;
34064;SDS011;20339;49.754;20.158;2022-12-11T00:37:48;16.90;;;11.50;;
34064;SDS011;20339;49.754;20.158;2022-12-11T00:40:16;17.40;;;11.70;;
34064;SDS011;20339;49.754;20.158;2022-12-11T00:42:45;17.40;;;12.10;;
34064;SDS011;20339;49.754;20.158;2022-12-11T00:45:13;16.50;;;11.00;;
34064;SDS011;20339;49.754;20.158;2022-12-11T00:47:45;16.90;;;11.20;;
34064;SDS011;20339;49.754;20.158;2022-12-11T00:50:14;16.40;;;10.40;;
34064;SDS011;20339;49.754;20.158;2022-12-11T00:52:42;16.80;;;10.90;;
34064;SDS011;20339;49.754;20.158;2022-12-11T00:55:13;15.40;;;9.90;;
34064;SDS011;20339;49.754;20.158;2022-12-11T00:57:41;16.90;;;11.00;;
34064;SDS011;20339;49.754;20.158;2022-12-11T01:00:11;14.20;;;9.90;;
34064;SDS011;20339;49.754;20.158;2022-12-11T01:02:41;16.00;;;10.30;;
34064;SDS011;20339;49.754;20.158;2022-12-11T01:05:09;13.90;;;10.30;;
34064;SDS011;20339;49.754;20.158;2022-12-11T01:07:38;16.00;;;11.00;;
34064;SDS011;20339;49.754;20.158;2022-12-11T01:12:50;15.20;;;9.20;;
34064;SDS011;20339;49.754;20.158;2022-12-11T01:15:20;16.80;;;11.20;;
34064;SDS011;20339;49.754;20.158;2022-12-11T01:17:51;14.20;;;9.70;;
34064;SDS011;20339;49.754;20.158;2022-12-11T01:20:20;14.40;;;10.30;;
34064;SDS011;20339;49.754;20.158;2022-12-11T01:22:51;14.40;;;10.00;;
34064;SDS011;20339;49.754;20.158;2022-12-11T01:25:20;15.10;;;10.60;;
34064;SDS011;20339;49.754;20.158;2022-12-11T01:27:49;13.70;;;9.90;;
34064;SDS011;20339;49.754;20.158;2022-12-11T01:30:19;16.30;;;10.50;;
34064;SDS011;20339;49.754;20.158;2022-12-11T01:32:49;15.90;;;11.00;;
34064;SDS011;20339;49.754;20.158;2022-12-11T01:35:18;16.70;;;11.20;;
34064;SDS011;20339;49.754;20.158;2022-12-11T01:37:48;17.40;;;11.80;;
34064;SDS011;20339;49.754;20.158;2022-12-11T01:40:17;16.60;;;11.40;;
34064;SDS011;20339;49.754;20.158;2022-12-11T01:42:46;17.20;;;12.70;;
34064;SDS011;20339;49.754;20.158;2022-12-11T01:45:20;15.70;;;11.00;;
34064;SDS011;20339;49.754;20.158;2022-12-11T01:47:54;16.30;;;10.80;;
34064;SDS011;20339;49.754;20.158;2022-12-11T01:50:28;15.60;;;11.20;;
34064;SDS011;20339;49.754;20.158;2022-12-11T01:53:00;16.50;;;11.40;;
34064;SDS011;20339;49.754;20.158;2022-12-11T01:55:30;16.20;;;10.80;;
34064;SDS011;20339;49.754;20.158;2022-12-11T01:58:00;18.50;;;12.00;;
34064;SDS011;20339;49.754;20.158;2022-12-11T02:00:29;17.80;;;12.00;;
34064;SDS011;20339;49.754;20.158;2022-12-11T02:02:58;16.00;;;11.30;;
34064;SDS011;20339;49.754;20.158;2022-12-11T02:05:26;17.30;;;11.90;;
34064;SDS011;20339;49.754;20.158;2022-12-11T02:07:55;15.00;;;10.50;;
34064;SDS011;20339;49.754;20.158;2022-12-11T02:10:29;16.10;;;10.60;;
34064;SDS011;20339;49.754;20.158;2022-12-11T02:13:06;14.00;;;9.30;;
34064;SDS011;20339;49.754;20.158;2022-12-11T02:15:41;12.90;;;9.30;;
34064;SDS011;20339;49.754;20.158;2022-12-11T02:18:15;14.10;;;9.50;;
34064;SDS011;20339;49.754;20.158;2022-12-11T02:20:59;10.80;;;7.40;;
34064;SDS011;20339;49.754;20.158;2022-12-11T02:23:37;12.50;;;7.50;;
34064;SDS011;20339;49.754;20.158;2022-12-11T02:26:28;11.30;;;8.40;;
34064;SDS011;20339;49.754;20.158;2022-12-11T02:29:11;12.50;;;7.90;;
34064;SDS011;20339;49.754;20.158;2022-12-11T02:31:45;12.30;;;8.30;;
34064;SDS011;20339;49.754;20.158;2022-12-11T02:34:22;12.90;;;7.60;;
34064;SDS011;20339;49.754;20.158;2022-12-11T02:36:59;12.70;;;8.40;;
34064;SDS011;20339;49.754;20.158;2022-12-11T02:39:34;11.90;;;9.00;;
34064;SDS011;20339;49.754;20.158;2022-12-11T02:42:07;12.20;;;7.90;;
34064;SDS011;20339;49.754;20.158;2022-12-11T02:44:37;11.80;;;8.60;;
34064;SDS011;20339;49.754;20.158;2022-12-11T02:47:10;11.50;;;8.80;;
34064;SDS011;20339;49.754;20.158;2022-12-11T02:49:43;13.20;;;8.30;;
34064;SDS011;20339;49.754;20.158;2022-12-11T02:52:15;12.30;;;8.40;;
34064;SDS011;20339;49.754;20.158;2022-12-11T02:54:47;13.30;;;9.30;;
34064;SDS011;20339;49.754;20.158;2022-12-11T02:57:18;13.00;;;8.90;;
34064;SDS011;20339;49.754;20.158;2022-12-11T02:59:51;12.80;;;9.20;;
34064;SDS011;20339;49.754;20.158;2022-12-11T03:02:21;12.10;;;8.50;;
34064;SDS011;20339;49.754;20.158;2022-12-11T03:04:50;14.60;;;9.60;;
34064;SDS011;20339;49.754;20.158;2022-12-11T03:07:19;12.50;;;8.70;;
34064;SDS011;20339;49.754;20.158;2022-12-11T03:09:51;12.80;;;8.80;;
34064;SDS011;20339;49.754;20.158;2022-12-11T03:12:20;12.80;;;8.70;;
34064;SDS011;20339;49.754;20.158;2022-12-11T03:14:53;13.00;;;9.20;;
34064;SDS011;20339;49.754;20.158;2022-12-11T03:17:25;14.30;;;10.00;;
34064;SDS011;20339;49.754;20.158;2022-12-11T03:20:03;13.30;;;9.80;;
34064;SDS011;20339;49.754;20.158;2022-12-11T03:22:39;13.90;;;10.20;;
34064;SDS011;20339;49.754;20.158;2022-12-11T03:25:14;13.90;;;9.00;;
34064;SDS011;20339;49.754;20.158;2022-12-11T03:27:47;13.20;;;9.20;;
34064;SDS011;20339;49.754;20.158;2022-12-11T03:30:22;12.10;;;8.70;;
34064;SDS011;20339;49.754;20.158;2022-12-11T03:32:54;11.50;;;8.10;;
34064;SDS011;20339;49.754;20.158;2022-12-11T03:35:28;12.50;;;8.60;;
34064;SDS011;20339;49.754;20.158;2022-12-11T03:38:00;12.00;;;7.80;;
34064;SDS011;20339;49.754;20.158;2022-12-11T03:40:32;13.00;;;8.10;;
34064;SDS011;20339;49.754;20.158;2022-12-11T03:43:04;13.00;;;9.20;;
34064;SDS011;20339;49.754;20.158;2022-12-11T03:45:34;13.30;;;8.50;;
34064;SDS011;20339;49.754;20.158;2022-12-11T03:48:06;13.60;;;7.80;;
34064;SDS011;20339;49.754;20.158;2022-12-11T03:50:37;12.20;;;7.50;;
34064;SDS011;20339;49.754;20.158;2022-12-11T03:53:07;11.80;;;7.70;;
34064;SDS011;20339;49.754;20.158;2022-12-11T03:58:08;13.30;;;8.30;;
34064;SDS011;20339;49.754;20.158;2022-12-11T04:00:36;12.20;;;8.10;;
34064;SDS011;20339;49.754;20.158;2022-12-11T04:03:05;12.10;;;8.00;;
34064;SDS011;20339;49.754;20.158;2022-12-11T04:05:41;12.40;;;8.40;;
34064;SDS011;20339;49.754;20.158;2022-12-11T04:08:11;12.50;;;9.00;;
34064;SDS011;20339;49.754;20.158;2022-12-11T04:10:40;12.40;;;7.90;;
34064;SDS011;20339;49.754;20.158;2022-12-11T04:13:09;13.20;;;8.70;;
34064;SDS011;20339;49.754;20.158;2022-12-11T04:15:38;13.40;;;9.00;;
34064;SDS011;20339;49.754;20.158;2022-12-11T04:18:07;13.10;;;8.10;;
34064;SDS011;20339;49.754;20.158;2022-12-11T04:20:55;13.00;;;8.40;;
34064;SDS011;20339;49.754;20.158;2022-12-11T04:23:42;11.10;;;7.70;;
34064;SDS011;20339;49.754;20.158;2022-12-11T04:26:30;12.00;;;8.00;;
34064;SDS011;20339;49.754;20.158;2022-12-11T04:28:59;11.50;;;8.00;;
34064;SDS011;20339;49.754;20.158;2022-12-11T04:31:27;11.60;;;7.40;;
34064;SDS011;20339;49.754;20.158;2022-12-11T04:33:56;11.10;;;7.40;;
34064;SDS011;20339;49.754;20.158;2022-12-11T04:36:25;9.50;;;6.10;;
34064;SDS011;20339;49.754;20.158;2022-12-11T04:38:56;10.60;;;7.20;;
34064;SDS011;20339;49.754;20.158;2022-12-11T04:41:25;11.90;;;6.40;;
34064;SDS011;20339;49.754;20.158;2022-12-11T04:43:54;10.10;;;6.80;;
34064;SDS011;20339;49.754;20.158;2022-12-11T04:46:25;10.70;;;7.20;;
34064;SDS011;20339;49.754;20.158;2022-12-11T04:48:54;11.50;;;7.60;;
34064;SDS011;20339;49.754;20.158;2022-12-11T04:51:22;11.70;;;7.70;;
34064;SDS011;20339;49.754;20.158;2022-12-11T04:53:51;11.80;;;8.10;;
34064;SDS011;20339;49.754;20.158;2022-12-11T04:56:20;12.90;;;8.50;;
34064;SDS011;20339;49.754;20.158;2022-12-11T04:58:49;12.50;;;8.10;;
34064;SDS011;20339;49.754;20.158;2022-12-11T05:01:19;8.30;;;5.60;;
34064;SDS011;20339;49.754;20.158;2022-12-11T05:03:49;9.30;;;6.10;;
34064;SDS011;20339;49.754;20.158;2022-12-11T05:06:17;10.50;;;6.90;;
34064;SDS011;20339;49.754;20.158;2022-12-11T05:08:48;9.30;;;6.90;;
34064;SDS011;20339;49.754;20.158;2022-12-11T05:11:19;8.60;;;6.10;;
34064;SDS011;20339;49.754;20.158;2022-12-11T05:13:48;9.70;;;6.20;;
34064;SDS011;20339;49.754;20.158;2022-12-11T05:16:18;10.70;;;6.60;;
34064;SDS011;20339;49.754;20.158;2022-12-11T05:18:49;9.40;;;6.60;;
34064;SDS011;20339;49.754;20.158;2022-12-11T05:21:18;9.90;;;5.90;;
34064;SDS011;20339;49.754;20.158;2022-12-11T05:23:47;8.50;;;6.00;;
34064;SDS011;20339;49.754;20.158;2022-12-11T05:26:16;9.70;;;6.30;;
34064;SDS011;20339;49.754;20.158;2022-12-11T05:28:53;7.90;;;5.60;;
34064;SDS011;20339;49.754;20.158;2022-12-11T05:31:22;9.30;;;6.00;;
34064;SDS011;20339;49.754;20.158;2022-12-11T05:33:52;10.10;;;6.30;;
34064;SDS011;20339;49.754;20.158;2022-12-11T05:36:22;8.90;;;5.50;;
34064;SDS011;20339;49.754;20.158;2022-12-11T05:38:52;8.10;;;5.60;;
34064;SDS011;20339;49.754;20.158;2022-12-11T05:43:51;10.60;;;5.60;;
34064;SDS011;20339;49.754;20.158;2022-12-11T05:46:21;8.50;;;5.70;;
34064;SDS011;20339;49.754;20.158;2022-12-11T05:48:56;8.50;;;5.70;;
34064;SDS011;20339;49.754;20.158;2022-12-11T05:51:31;7.80;;;4.80;;
34064;SDS011;20339;49.754;20.158;2022-12-11T05:54:00;7.40;;;4.60;;
34064;SDS011;20339;49.754;20.158;2022-12-11T05:56:31;7.60;;;4.80;;
34064;SDS011;20339;49.754;20.158;2022-12-11T05:59:00;8.60;;;5.50;;
34064;SDS011;20339;49.754;20.158;2022-12-11T06:01:31;8.00;;;5.40;;
34064;SDS011;20339;49.754;20.158;2022-12-11T06:04:02;9.10;;;5.40;;
34064;SDS011;20339;49.754;20.158;2022-12-11T06:06:33;8.30;;;5.80;;
34064;SDS011;20339;49.754;20.158;2022-12-11T06:09:02;11.00;;;8.10;;
34064;SDS011;20339;49.754;20.158;2022-12-11T06:11:32;12.40;;;8.50;;
34064;SDS011;20339;49.754;20.158;2022-12-11T06:14:02;16.40;;;11.80;;
34064;SDS011;20339;49.754;20.158;2022-12-11T06:16:31;8.60;;;5.50;;
34064;SDS011;20339;49.754;20.158;2022-12-11T06:19:00;7.60;;;5.10;;
34064;SDS011;20339;49.754;20.158;2022-12-11T06:21:29;9.40;;;6.10;;
34064;SDS011;20339;49.754;20.158;2022-12-11T06:24:02;8.00;;;5.50;;
34064;SDS011;20339;49.754;20.158;2022-12-11T06:26:32;9.10;;;6.00;;
34064;SDS011;20339;49.754;20.158;2022-12-11T06:29:00;8.80;;;6.10;;
34064;SDS011;20339;49.754;20.158;2022-12-11T06:31:29;9.60;;;5.80;;
34064;SDS011;20339;49.754;20.158;2022-12-11T06:33:58;8.30;;;5.80;;
34064;SDS011;20339;49.754;20.158;2022-12-11T06:36:27;8.60;;;5.50;;
34064;SDS011;20339;49.754;20.158;2022-12-11T06:38:58;12.90;;;8.00;;
34064;SDS011;20339;49.754;20.158;2022-12-11T06:41:27;9.90;;;7.70;;
34064;SDS011;20339;49.754;20.158;2022-12-11T06:43:57;8.70;;;6.60;;
34064;SDS011;20339;49.754;20.158;2022-12-11T06:46:25;7.40;;;5.10;;
34064;SDS011;20339;49.754;20.158;2022-12-11T06:48:54;7.80;;;4.90;;
34064;SDS011;20339;49.754;20.158;2022-12-11T06:51:23;6.90;;;4.70;;
34064;SDS011;20339;49.754;20.158;2022-12-11T06:53:53;6.70;;;4.70;;
34064;SDS011;20339;49.754;20.158;2022-12-11T06:56:23;8.00;;;5.20;;
34064;SDS011;20339;49.754;20.158;2022-12-11T06:58:55;7.90;;;5.10;;
34064;SDS011;20339;49.754;20.158;2022-12-11T07:01:24;6.90;;;5.30;;
34064;SDS011;20339;49.754;20.158;2022-12-11T07:03:56;8.50;;;5.60;;
34064;SDS011;20339;49.754;20.158;2022-12-11T07:06:26;7.60;;;4.90;;
34064;SDS011;20339;49.754;20.158;2022-12-11T07:08:55;7.00;;;4.90;;
34064;SDS011;20339;49.754;20.158;2022-12-11T07:11:24;7.50;;;5.00;;
34064;SDS011;20339;49.754;20.158;2022-12-11T07:13:53;5.30;;;4.20;;
34064;SDS011;20339;49.754;20.158;2022-12-11T07:16:24;5.70;;;4.00;;
34064;SDS011;20339;49.754;20.158;2022-12-11T07:18:57;6.20;;;3.90;;
34064;SDS011;20339;49.754;20.158;2022-12-11T07:21:26;6.10;;;3.60;;
34064;SDS011;20339;49.754;20.158;2022-12-11T07:23:55;5.50;;;3.60;;
34064;SDS011;20339;49.754;20.158;2022-12-11T07:26:25;5.90;;;3.90;;
34064;SDS011;20339;49.754;20.158;2022-12-11T07:28:59;5.90;;;3.70;;
34064;SDS011;20339;49.754;20.158;2022-12-11T07:31:30;6.50;;;3.70;;
34064;SDS011;20339;49.754;20.158;2022-12-11T07:34:00;5.00;;;3.50;;
34064;SDS011;20339;49.754;20.158;2022-12-11T07:36:31;6.70;;;4.50;;
34064;SDS011;20339;49.754;20.158;2022-12-11T07:39:00;7.50;;;4.30;;
34064;SDS011;20339;49.754;20.158;2022-12-11T07:41:29;8.60;;;5.30;;
34064;SDS011;20339;49.754;20.158;2022-12-11T07:43:58;8.20;;;5.40;;
34064;SDS011;20339;49.754;20.158;2022-12-11T07:46:28;7.60;;;5.20;;
34064;SDS011;20339;49.754;20.158;2022-12-11T07:48:59;8.70;;;5.60;;
34064;SDS011;20339;49.754;20.158;2022-12-11T07:51:29;7.30;;;4.90;;
34064;SDS011;20339;49.754;20.158;2022-12-11T07:54:02;8.70;;;5.90;;
34064;SDS011;20339;49.754;20.158;2022-12-11T07:56:33;8.10;;;5.20;;
34064;SDS011;20339;49.754;20.158;2022-12-11T07:59:02;5.60;;;3.30;;
34064;SDS011;20339;49.754;20.158;2022-12-11T08:01:33;9.00;;;5.70;;
34064;SDS011;20339;49.754;20.158;2022-12-11T08:06:32;9.90;;;6.10;;
34064;SDS011;20339;49.754;20.158;2022-12-11T08:09:03;9.60;;;6.30;;
34064;SDS011;20339;49.754;20.158;2022-12-11T08:11:32;8.90;;;6.10;;
34064;SDS011;20339;49.754;20.158;2022-12-11T08:14:01;7.40;;;5.30;;
34064;SDS011;20339;49.754;20.158;2022-12-11T08:16:32;8.20;;;5.40;;
34064;SDS011;20339;49.754;20.158;2022-12-11T08:19:01;7.70;;;5.20;;
34064;SDS011;20339;49.754;20.158;2022-12-11T08:21:30;9.20;;;6.10;;
34064;SDS011;20339;49.754;20.158;2022-12-11T08:23:59;9.10;;;6.00;;
34064;SDS011;20339;49.754;20.158;2022-12-11T08:26:28;8.80;;;5.80;;
34064;SDS011;20339;49.754;20.158;2022-12-11T08:28:59;7.60;;;5.00;;
34064;SDS011;20339;49.754;20.158;2022-12-11T08:31:29;10.40;;;6.70;;
34064;SDS011;20339;49.754;20.158;2022-12-11T08:33:58;8.70;;;5.90;;
34064;SDS011;20339;49.754;20.158;2022-12-11T08:36:27;8.70;;;5.20;;
34064;SDS011;20339;49.754;20.158;2022-12-11T08:38:56;8.00;;;4.80;;
34064;SDS011;20339;49.754;20.158;2022-12-11T08:41:26;8.70;;;5.60;;
34064;SDS011;20339;49.754;20.158;2022-12-11T08:43:57;10.50;;;6.00;;
34064;SDS011;20339;49.754;20.158;2022-12-11T08:46:28;10.60;;;5.80;;
34064;SDS011;20339;49.754;20.158;2022-12-11T08:48:58;7.90;;;5.10;;
34064;SDS011;20339;49.754;20.158;2022-12-11T08:51:27;8.40;;;5.50;;
34064;SDS011;20339;49.754;20.158;2022-12-11T08:53:56;7.70;;;5.50;;
34064;SDS011;20339;49.754;20.158;2022-12-11T08:58:55;9.40;;;5.90;;
34064;SDS011;20339;49.754;20.158;2022-12-11T09:01:25;13.20;;;8.00;;
34064;SDS011;20339;49.754;20.158;2022-12-11T09:03:55;9.20;;;6.00;;
34064;SDS011;20339;49.754;20.158;2022-12-11T09:06:24;10.10;;;6.60;;
34064;SDS011;20339;49.754;20.158;2022-12-11T09:08:57;10.80;;;5.70;;
34064;SDS011;20339;49.754;20.158;2022-12-11T09:11:31;8.30;;;5.50;;
34064;SDS011;20339;49.754;20.158;2022-12-11T09:14:01;8.20;;;5.60;;
34064;SDS011;20339;49.754;20.158;2022-12-11T09:16:31;9.20;;;6.00;;
34064;SDS011;20339;49.754;20.158;2022-12-11T09:19:03;8.60;;;6.30;;
34064;SDS011;20339;49.754;20.158;2022-12-11T09:21:34;9.50;;;6.00;;
34064;SDS011;20339;49.754;20.158;2022-12-11T09:24:02;8.50;;;5.90;;
34064;SDS011;20339;49.754;20.158;2022-12-11T09:26:33;9.20;;;5.50;;
34064;SDS011;20339;49.754;20.158;2022-12-11T09:29:03;9.90;;;6.40;;
34064;SDS011;20339;49.754;20.158;2022-12-11T09:31:34;8.70;;;4.90;;
34064;SDS011;20339;49.754;20.158;2022-12-11T09:34:04;10.10;;;6.40;;
34064;SDS011;20339;49.754;20.158;2022-12-11T09:36:36;9.20;;;5.60;;
34064;SDS011;20339;49.754;20.158;2022-12-11T09:39:07;9.70;;;6.50;;
34064;SDS011;20339;49.754;20.158;2022-12-11T09:41:43;9.00;;;6.20;;
34064;SDS011;20339;49.754;20.158;2022-12-11T09:44:23;10.20;;;6.40;;
34064;SDS011;20339;49.754;20.158;2022-12-11T09:47:01;9.00;;;5.80;;
34064;SDS011;20339;49.754;20.158;2022-12-11T09:49:42;7.20;;;4.50;;
34064;SDS011;20339;49.754;20.158;2022-12-11T09:52:17;9.60;;;5.50;;
34064;SDS011;20339;49.754;20.158;2022-12-11T09:54:51;8.50;;;5.30;;
34064;SDS011;20339;49.754;20.158;2022-12-11T09:57:27;6.90;;;4.80;;
34064;SDS011;20339;49.754;20.158;2022-12-11T10:00:10;9.70;;;6.00;;
34064;SDS011;20339;49.754;20.158;2022-12-11T10:05:45;10.30;;;6.70;;
34064;SDS011;20339;49.754;20.158;2022-12-11T10:08:26;9.60;;;6.10;;
34064;SDS011;20339;49.754;20.158;2022-12-11T10:11:04;9.00;;;6.40;;
34064;SDS011;20339;49.754;20.158;2022-12-11T10:13:52;9.40;;;5.40;;
34064;SDS011;20339;49.754;20.158;2022-12-11T10:16:34;10.50;;;6.50;;
34064;SDS011;20339;49.754;20.158;2022-12-11T10:19:09;11.30;;;8.00;;
34064;SDS011;20339;49.754;20.158;2022-12-11T10:21:47;12.00;;;8.60;;
34064;SDS011;20339;49.754;20.158;2022-12-11T10:24:19;9.30;;;5.80;;
34064;SDS011;20339;49.754;20.158;2022-12-11T10:26:54;8.70;;;6.10;;
34064;SDS011;20339;49.754;20.158;2022-12-11T10:29:27;9.50;;;5.80;;
34064;SDS011;20339;49.754;20.158;2022-12-11T10:31:56;9.20;;;6.70;;
34064;SDS011;20339;49.754;20.158;2022-12-11T10:34:28;9.10;;;6.40;;
34064;SDS011;20339;49.754;20.158;2022-12-11T10:37:05;8.90;;;5.70;;
34064;SDS011;20339;49.754;20.158;2022-12-11T10:39:34;8.30;;;5.70;;
34064;SDS011;20339;49.754;20.158;2022-12-11T10:42:09;9.40;;;7.00;;
34064;SDS011;20339;49.754;20.158;2022-12-11T10:44:54;10.60;;;6.60;;
34064;SDS011;20339;49.754;20.158;2022-12-11T10:47:26;7.90;;;5.10;;
34064;SDS011;20339;49.754;20.158;2022-12-11T10:49:56;8.50;;;5.70;;
34064;SDS011;20339;49.754;20.158;2022-12-11T10:52:27;7.60;;;5.40;;
34064;SDS011;20339;49.754;20.158;2022-12-11T10:54:59;8.50;;;5.70;;
34064;SDS011;20339;49.754;20.158;2022-12-11T10:57:31;8.60;;;5.70;;
34064;SDS011;20339;49.754;20.158;2022-12-11T11:00:03;8.00;;;5.50;;
34064;SDS011;20339;49.754;20.158;2022-12-11T11:02:36;7.90;;;5.50;;
34064;SDS011;20339;49.754;20.158;2022-12-11T11:05:11;9.10;;;5.80;;
34064;SDS011;20339;49.754;20.158;2022-12-11T11:07:41;10.50;;;6.30;;
34064;SDS011;20339;49.754;20.158;2022-12-11T11:10:15;9.00;;;6.30;;
34064;SDS011;20339;49.754;20.158;2022-12-11T11:12:45;8.50;;;6.40;;
34064;SDS011;20339;49.754;20.158;2022-12-11T11:15:19;8.20;;;5.40;;
34064;SDS011;20339;49.754;20.158;2022-12-11T11:17:53;8.10;;;5.70;;
34064;SDS011;20339;49.754;20.158;2022-12-11T11:20:25;7.60;;;5.90;;
34064;SDS011;20339;49.754;20.158;2022-12-11T11:22:56;8.00;;;5.80;;
34064;SDS011;20339;49.754;20.158;2022-12-11T11:25:27;7.70;;;5.40;;
34064;SDS011;20339;49.754;20.158;2022-12-11T11:27:59;7.80;;;5.80;;
34064;SDS011;20339;49.754;20.158;2022-12-11T11:30:33;10.50;;;7.40;;
34064;SDS011;20339;49.754;20.158;2022-12-11T11:33:09;11.60;;;7.70;;
34064;SDS011;20339;49.754;20.158;2022-12-11T11:35:49;8.20;;;5.70;;
34064;SDS011;20339;49.754;20.158;2022-12-11T11:38:20;10.50;;;6.50;;
34064;SDS011;20339;49.754;20.158;2022-12-11T11:40:53;11.60;;;5.70;;
34064;SDS011;20339;49.754;20.158;2022-12-11T11:43:28;15.60;;;10.70;;
34064;SDS011;20339;49.754;20.158;2022-12-11T11:46:06;9.50;;;7.00;;
34064;SDS011;20339;49.754;20.158;2022-12-11T11:48:42;16.70;;;9.70;;
34064;SDS011;20339;49.754;20.158;2022-12-11T11:51:20;17.90;;;11.00;;
34064;SDS011;20339;49.754;20.158;2022-12-11T11:53:54;11.10;;;6.60;;
34064;SDS011;20339;49.754;20.158;2022-12-11T11:56:30;13.50;;;9.30;;
34064;SDS011;20339;49.754;20.158;2022-12-11T11:59:04;16.20;;;10.90;;
34064;SDS011;20339;49.754;20.158;2022-12-11T12:01:40;12.30;;;8.00;;
34064;SDS011;20339;49.754;20.158;2022-12-11T12:04:10;15.80;;;10.80;;
34064;SDS011;20339;49.754;20.158;2022-12-11T12:06:43;17.00;;;8.20;;
34064;SDS011;20339;49.754;20.158;2022-12-11T12:09:36;15.10;;;8.60;;
34064;SDS011;20339;49.754;20.158;2022-12-11T12:12:14;17.70;;;13.00;;
34064;SDS011;20339;49.754;20.158;2022-12-11T12:14:56;17.90;;;12.30;;
34064;SDS011;20339;49.754;20.158;2022-12-11T12:17:36;18.50;;;12.20;;
34064;SDS011;20339;49.754;20.158;2022-12-11T12:20:20;15.10;;;9.70;;
34064;SDS011;20339;49.754;20.158;2022-12-11T12:23:02;16.60;;;10.30;;
34064;SDS011;20339;49.754;20.158;2022-12-11T12:25:45;16.80;;;11.60;;
34064;SDS011;20339;49.754;20.158;2022-12-11T12:28:24;17.20;;;12.80;;
34064;SDS011;20339;49.754;20.158;2022-12-11T12:31:16;14.00;;;7.90;;
34064;SDS011;20339;49.754;20.158;2022-12-11T12:34:01;17.80;;;11.70;;
34064;SDS011;20339;49.754;20.158;2022-12-11T12:36:39;13.80;;;9.10;;
34064;SDS011;20339;49.754;20.158;2022-12-11T12:39:19;15.20;;;10.00;;
34064;SDS011;20339;49.754;20.158;2022-12-11T12:42:01;14.10;;;9.30;;
34064;SDS011;20339;49.754;20.158;2022-12-11T12:44:40;18.00;;;10.20;;
34064;SDS011;20339;49.754;20.158;2022-12-11T12:47:18;19.60;;;12.40;;
34064;SDS011;20339;49.754;20.158;2022-12-11T12:49:49;21.70;;;13.50;;
34064;SDS011;20339;49.754;20.158;2022-12-11T12:52:20;16.50;;;11.20;;
34064;SDS011;20339;49.754;20.158;2022-12-11T12:54:56;32.70;;;19.90;;
34064;SDS011;20339;49.754;20.158;2022-12-11T12:57:43;17.80;;;10.90;;
34064;SDS011;20339;49.754;20.158;2022-12-11T13:00:25;17.10;;;11.10;;
34064;SDS011;20339;49.754;20.158;2022-12-11T13:02:56;15.70;;;9.60;;
34064;SDS011;20339;49.754;20.158;2022-12-11T13:05:28;18.30;;;11.90;;
34064;SDS011;20339;49.754;20.158;2022-12-11T13:08:00;17.20;;;9.80;;
34064;SDS011;20339;49.754;20.158;2022-12-11T13:10:32;16.50;;;11.70;;
34064;SDS011;20339;49.754;20.158;2022-12-11T13:13:04;30.70;;;15.20;;
34064;SDS011;20339;49.754;20.158;2022-12-11T13:15:52;11.30;;;8.10;;
34064;SDS011;20339;49.754;20.158;2022-12-11T13:18:33;24.30;;;11.30;;
34064;SDS011;20339;49.754;20.158;2022-12-11T13:26:43;18.40;;;10.90;;
34064;SDS011;20339;49.754;20.158;2022-12-11T13:29:30;17.90;;;12.00;;
34064;SDS011;20339;49.754;20.158;2022-12-11T13:32:10;15.70;;;9.40;;
34064;SDS011;20339;49.754;20.158;2022-12-11T13:34:51;15.70;;;10.60;;
34064;SDS011;20339;49.754;20.158;2022-12-11T13:37:24;10.60;;;6.70;;
34064;SDS011;20339;49.754;20.158;2022-12-11T13:39:58;15.20;;;9.60;;
34064;SDS011;20339;49.754;20.158;2022-12-11T13:42:35;14.80;;;8.30;;
34064;SDS011;20339;49.754;20.158;2022-12-11T13:45:18;16.70;;;9.60;;
34064;SDS011;20339;49.754;20.158;2022-12-11T13:47:54;14.50;;;9.80;;
34064;SDS011;20339;49.754;20.158;2022-12-11T13:50:27;15.60;;;10.20;;
34064;SDS011;20339;49.754;20.158;2022-12-11T13:52:58;17.80;;;10.40;;
34064;SDS011;20339;49.754;20.158;2022-12-11T13:55:31;22.20;;;11.50;;
34064;SDS011;20339;49.754;20.158;2022-12-11T13:58:01;19.30;;;10.40;;
34064;SDS011;20339;49.754;20.158;2022-12-11T14:00:42;17.00;;;8.40;;
34064;SDS011;20339;49.754;20.158;2022-12-11T14:03:19;18.30;;;10.50;;
34064;SDS011;20339;49.754;20.158;2022-12-11T14:08:19;15.80;;;9.90;;
34064;SDS011;20339;49.754;20.158;2022-12-11T14:11:02;14.90;;;8.60;;
34064;SDS011;20339;49.754;20.158;2022-12-11T14:13:34;10.90;;;7.00;;
34064;SDS011;20339;49.754;20.158;2022-12-11T14:16:13;14.50;;;10.40;;
34064;SDS011;20339;49.754;20.158;2022-12-11T14:18:49;15.80;;;11.20;;
34064;SDS011;20339;49.754;20.158;2022-12-11T14:21:23;29.40;;;18.00;;
34064;SDS011;20339;49.754;20.158;2022-12-11T14:23:55;14.50;;;8.60;;
34064;SDS011;20339;49.754;20.158;2022-12-11T14:26:27;18.10;;;11.50;;
34064;SDS011;20339;49.754;20.158;2022-12-11T14:29:00;27.10;;;18.80;;
34064;SDS011;20339;49.754;20.158;2022-12-11T14:31:33;32.80;;;18.60;;
34064;SDS011;20339;49.754;20.158;2022-12-11T14:34:08;23.10;;;13.60;;
34064;SDS011;20339;49.754;20.158;2022-12-11T14:36:42;15.20;;;9.40;;
34064;SDS011;20339;49.754;20.158;2022-12-11T14:39:18;17.70;;;8.40;;
34064;SDS011;20339;49.754;20.158;2022-12-11T14:41:52;21.00;;;12.30;;
34064;SDS011;20339;49.754;20.158;2022-12-11T14:44:27;17.90;;;11.30;;
34064;SDS011;20339;49.754;20.158;2022-12-11T14:47:02;17.00;;;10.70;;
34064;SDS011;20339;49.754;20.158;2022-12-11T14:49:41;16.00;;;9.50;;
34064;SDS011;20339;49.754;20.158;2022-12-11T14:52:18;19.90;;;11.20;;
34064;SDS011;20339;49.754;20.158;2022-12-11T14:54:55;18.70;;;10.60;;
34064;SDS011;20339;49.754;20.158;2022-12-11T14:57:33;25.40;;;16.80;;
34064;SDS011;20339;49.754;20.158;2022-12-11T15:00:04;19.10;;;10.60;;
34064;SDS011;20339;49.754;20.158;2022-12-11T15:02:38;15.30;;;9.40;;
34064;SDS011;20339;49.754;20.158;2022-12-11T15:05:15;17.70;;;10.60;;
34064;SDS011;20339;49.754;20.158;2022-12-11T15:08:00;19.10;;;10.10;;
34064;SDS011;20339;49.754;20.158;2022-12-11T15:10:39;23.00;;;11.50;;
34064;SDS011;20339;49.754;20.158;2022-12-11T15:13:22;15.60;;;8.90;;
34064;SDS011;20339;49.754;20.158;2022-12-11T15:15:53;16.80;;;10.00;;
34064;SDS011;20339;49.754;20.158;2022-12-11T15:18:24;16.30;;;9.70;;